createdAt,value
2018-03-24T00:00:16.499Z,1.73
2018-03-24T00:01:16.528Z,1.73
2018-03-24T00:02:16.792Z,1.73
2018-03-24T00:03:17.088Z,1.73
2018-03-24T00:04:16.357Z,1.73
2018-03-24T00:05:16.626Z,1.73
2018-03-24T00:06:16.893Z,1.67
2018-03-24T00:07:17.164Z,1.67
2018-03-24T00:08:16.468Z,1.67
2018-03-24T00:09:16.770Z,1.61
2018-03-24T00:10:17.042Z,1.67
2018-03-24T00:11:17.098Z,1.67
2018-03-24T00:12:16.370Z,1.67
2018-03-24T00:13:16.629Z,1.67
2018-03-24T00:14:16.893Z,1.67
2018-03-24T00:15:17.176Z,1.67
2018-03-24T00:16:16.456Z,1.67
2018-03-24T00:17:16.723Z,1.67
2018-03-24T00:18:16.993Z,1.67
2018-03-24T00:19:16.255Z,1.67
2018-03-24T00:20:16.531Z,1.67
2018-03-24T00:21:16.586Z,1.67
2018-03-24T00:22:16.853Z,1.67
2018-03-24T00:23:17.140Z,1.67
2018-03-24T00:24:16.408Z,1.67
2018-03-24T00:25:16.674Z,1.67
2018-03-24T00:26:16.940Z,1.67
2018-03-24T00:27:16.220Z,1.67
2018-03-24T00:28:16.483Z,1.67
2018-03-24T00:29:16.794Z,1.67
2018-03-24T00:30:17.062Z,1.67
2018-03-24T00:31:17.106Z,1.67
2018-03-24T00:32:16.369Z,1.67
2018-03-24T00:33:16.625Z,1.67
2018-03-24T00:34:16.905Z,1.67
2018-03-24T00:35:17.173Z,1.67
2018-03-24T00:36:16.446Z,1.67
2018-03-24T00:37:16.709Z,1.67
2018-03-24T00:38:16.981Z,1.67
2018-03-24T00:39:16.247Z,1.67
2018-03-24T00:40:16.526Z,1.67
2018-03-24T00:41:16.561Z,1.67
2018-03-24T00:42:16.827Z,1.67
2018-03-24T00:43:17.084Z,1.73
2018-03-24T00:44:16.355Z,1.67
2018-03-24T00:45:16.635Z,1.67
2018-03-24T00:46:16.899Z,1.67
2018-03-24T00:47:17.163Z,1.67
2018-03-24T00:48:16.428Z,1.61
2018-03-24T00:49:16.699Z,1.67
2018-03-24T00:50:16.965Z,1.61
2018-03-24T00:51:17.006Z,1.61
2018-03-24T00:52:16.273Z,1.55
2018-03-24T00:53:16.549Z,1.55
2018-03-24T00:54:16.809Z,1.55
2018-03-24T00:55:17.074Z,1.55
2018-03-24T00:56:16.336Z,1.61
2018-03-24T00:57:16.604Z,1.61
2018-03-24T00:58:16.877Z,1.61
2018-03-24T00:59:17.154Z,1.61
2018-03-24T01:00:16.440Z,1.55
2018-03-24T01:01:16.463Z,1.61
2018-03-24T01:02:16.744Z,1.61
2018-03-24T01:03:17.014Z,1.55
2018-03-24T01:04:16.277Z,1.55
2018-03-24T01:05:16.551Z,1.48
2018-03-24T01:06:16.826Z,1.48
2018-03-24T01:07:17.087Z,1.42
2018-03-24T01:08:16.352Z,1.36
2018-03-24T01:09:16.620Z,1.30
2018-03-24T01:10:17.602Z,1.30
2018-03-24T01:11:16.945Z,1.30
2018-03-24T01:12:16.210Z,1.30
2018-03-24T01:13:16.476Z,1.30
2018-03-24T01:14:16.758Z,1.30
2018-03-24T01:15:17.027Z,1.30
2018-03-24T01:16:16.298Z,1.30
2018-03-24T01:17:16.563Z,1.30
2018-03-24T01:18:16.824Z,1.36
2018-03-24T01:19:17.082Z,1.30
2018-03-24T01:20:16.361Z,1.30
2018-03-24T01:21:16.398Z,1.30
2018-03-24T01:22:16.659Z,1.30
2018-03-24T01:23:16.923Z,1.30
2018-03-24T01:24:17.191Z,1.30
2018-03-24T01:25:16.449Z,1.30
2018-03-24T01:26:16.717Z,1.30
2018-03-24T01:27:16.982Z,1.30
2018-03-24T01:28:16.238Z,1.23
2018-03-24T01:29:16.503Z,1.23
2018-03-24T01:30:16.772Z,1.23
2018-03-24T01:31:16.817Z,1.23
2018-03-24T01:32:17.086Z,1.17
2018-03-24T01:33:16.355Z,1.17
2018-03-24T01:34:16.620Z,1.17
2018-03-24T01:35:16.901Z,1.17
2018-03-24T01:36:17.167Z,1.17
2018-03-24T01:37:16.433Z,1.17
2018-03-24T01:38:16.687Z,1.23
2018-03-24T01:39:16.946Z,1.17
2018-03-24T01:40:16.212Z,1.17
2018-03-24T01:41:16.258Z,1.11
2018-03-24T01:42:16.521Z,1.05
2018-03-24T01:43:16.797Z,1.05
2018-03-24T01:44:17.061Z,0.98
2018-03-24T01:45:16.318Z,0.92
2018-03-24T01:46:16.887Z,0.86
2018-03-24T01:47:17.148Z,0.80
2018-03-24T01:48:16.408Z,0.80
2018-03-24T01:49:16.672Z,0.80
2018-03-24T01:50:16.941Z,0.80
2018-03-24T01:51:16.996Z,0.80
2018-03-24T01:52:16.259Z,0.80
2018-03-24T01:53:16.525Z,0.86
2018-03-24T01:54:16.797Z,0.86
2018-03-24T01:55:17.282Z,0.80
2018-03-24T01:56:16.547Z,0.80
2018-03-24T01:57:16.814Z,0.80
2018-03-24T01:58:17.083Z,0.80
2018-03-24T01:59:16.342Z,0.80
2018-03-24T02:00:16.626Z,0.80
2018-03-24T02:01:16.648Z,0.80
2018-03-24T02:02:16.978Z,0.73
2018-03-24T02:03:16.256Z,0.67
2018-03-24T02:04:16.514Z,0.73
2018-03-24T02:05:16.794Z,0.73
2018-03-24T02:06:17.311Z,0.73
2018-03-24T02:07:16.572Z,0.73
2018-03-24T02:08:16.836Z,0.73
2018-03-24T02:09:17.092Z,0.67
2018-03-24T02:10:16.357Z,0.61
2018-03-24T02:11:16.412Z,0.61
2018-03-24T02:12:16.679Z,0.61
2018-03-24T02:13:16.937Z,0.61
2018-03-24T02:14:17.202Z,0.55
2018-03-24T02:15:16.466Z,0.55
2018-03-24T02:16:16.741Z,0.55
2018-03-24T02:17:17.002Z,0.48
2018-03-24T02:18:16.272Z,0.42
2018-03-24T02:19:16.535Z,0.36
2018-03-24T02:20:16.808Z,0.36
2018-03-24T02:21:16.842Z,0.30
2018-03-24T02:22:16.285Z,0.30
2018-03-24T02:23:16.551Z,0.23
2018-03-24T02:24:16.814Z,0.30
2018-03-24T02:25:17.083Z,0.42
2018-03-24T02:26:16.361Z,0.36
2018-03-24T02:27:16.621Z,0.36
2018-03-24T02:28:16.887Z,0.30
2018-03-24T02:29:17.148Z,0.30
2018-03-24T02:30:16.423Z,0.17
2018-03-24T02:31:16.454Z,0.11
2018-03-24T02:32:16.728Z,0.05
2018-03-24T02:33:17.020Z,-0.02
2018-03-24T02:34:16.284Z,-0.02
2018-03-24T02:35:16.547Z,-0.08
2018-03-24T02:36:16.824Z,-0.02
2018-03-24T02:37:17.102Z,-0.02
2018-03-24T02:38:16.364Z,-0.02
2018-03-24T02:39:16.641Z,-0.08
2018-03-24T02:40:16.919Z,-0.02
2018-03-24T02:41:16.963Z,-0.08
2018-03-24T02:42:16.230Z,-0.08
2018-03-24T02:43:16.502Z,-0.14
2018-03-24T02:44:16.772Z,-0.20
2018-03-24T02:45:17.048Z,-0.20
2018-03-24T02:46:16.328Z,-0.20
2018-03-24T02:47:16.660Z,-0.27
2018-03-24T02:48:16.953Z,-0.20
2018-03-24T02:49:16.226Z,-0.27
2018-03-24T02:50:16.504Z,-0.33
2018-03-24T02:51:16.549Z,-0.33
2018-03-24T02:52:16.809Z,-0.27
2018-03-24T02:53:17.372Z,-0.20
2018-03-24T02:54:16.642Z,-0.20
2018-03-24T02:55:16.911Z,-0.20
2018-03-24T02:56:17.181Z,-0.27
2018-03-24T02:57:16.444Z,-0.33
2018-03-24T02:58:16.704Z,-0.20
2018-03-24T02:59:16.978Z,-0.02
2018-03-24T03:00:16.267Z,0.05
2018-03-24T03:01:16.314Z,0.05
2018-03-24T03:02:16.596Z,0.05
2018-03-24T03:03:16.874Z,-0.02
2018-03-24T03:04:17.157Z,-0.02
2018-03-24T03:05:16.423Z,-0.08
2018-03-24T03:06:16.691Z,-0.20
2018-03-24T03:07:16.958Z,-0.20
2018-03-24T03:08:16.236Z,-0.27
2018-03-24T03:09:16.496Z,-0.33
2018-03-24T03:10:16.764Z,-0.27
2018-03-24T03:11:16.798Z,-0.33
2018-03-24T03:12:17.064Z,-0.45
2018-03-24T03:13:16.339Z,-0.45
2018-03-24T03:14:16.633Z,-0.45
2018-03-24T03:15:16.909Z,-0.33
2018-03-24T03:16:17.173Z,-0.39
2018-03-24T03:17:16.431Z,-0.45
2018-03-24T03:18:16.693Z,-0.52
2018-03-24T03:19:16.962Z,-0.52
2018-03-24T03:20:16.222Z,-0.58
2018-03-24T03:21:16.248Z,-0.64
2018-03-24T03:22:16.521Z,-0.64
2018-03-24T03:23:16.781Z,-0.64
2018-03-24T03:24:17.054Z,-0.64
2018-03-24T03:25:16.309Z,-0.64
2018-03-24T03:26:16.572Z,-0.70
2018-03-24T03:27:16.835Z,-0.77
2018-03-24T03:28:17.097Z,-0.77
2018-03-24T03:29:16.359Z,-0.70
2018-03-24T03:30:16.644Z,-0.58
2018-03-24T03:31:16.681Z,-0.64
2018-03-24T03:32:16.954Z,-0.64
2018-03-24T03:33:16.219Z,-0.70
2018-03-24T03:34:16.490Z,-0.70
2018-03-24T03:35:16.750Z,-0.77
2018-03-24T03:36:17.019Z,-0.77
2018-03-24T03:37:16.302Z,-0.83
2018-03-24T03:38:16.566Z,-0.83
2018-03-24T03:39:16.837Z,-0.83
2018-03-24T03:40:17.110Z,-0.83
2018-03-24T03:41:16.405Z,-0.77
2018-03-24T03:42:16.667Z,-0.70
2018-03-24T03:43:16.928Z,-0.70
2018-03-24T03:44:17.190Z,-0.77
2018-03-24T03:45:16.443Z,-0.77
2018-03-24T03:46:16.705Z,-0.77
2018-03-24T03:47:16.962Z,-0.83
2018-03-24T03:48:16.237Z,-0.89
2018-03-24T03:49:16.503Z,-0.95
2018-03-24T03:50:16.788Z,-0.95
2018-03-24T03:51:16.830Z,-0.95
2018-03-24T03:52:17.094Z,-0.95
2018-03-24T03:53:16.353Z,-1.08
2018-03-24T03:54:16.609Z,-1.20
2018-03-24T03:55:16.870Z,-1.27
2018-03-24T03:56:17.137Z,-1.27
2018-03-24T03:57:16.405Z,-1.39
2018-03-24T03:58:16.670Z,-1.45
2018-03-24T03:59:16.932Z,-1.52
2018-03-24T04:00:17.474Z,-1.58
2018-03-24T04:01:16.254Z,-1.58
2018-03-24T04:02:16.519Z,-1.64
2018-03-24T04:03:16.786Z,-1.64
2018-03-24T04:04:17.046Z,-1.64
2018-03-24T04:05:16.314Z,-1.64
2018-03-24T04:06:16.580Z,-1.64
2018-03-24T04:07:16.847Z,-1.70
2018-03-24T04:08:17.112Z,-1.64
2018-03-24T04:09:16.376Z,-1.64
2018-03-24T04:10:16.650Z,-1.70
2018-03-24T04:11:16.676Z,-1.64
2018-03-24T04:12:16.952Z,-1.70
2018-03-24T04:13:16.229Z,-1.70
2018-03-24T04:14:16.496Z,-1.77
2018-03-24T04:15:16.763Z,-1.70
2018-03-24T04:16:17.029Z,-1.64
2018-03-24T04:17:16.289Z,-1.58
2018-03-24T04:18:16.549Z,-1.58
2018-03-24T04:19:16.813Z,-1.58
2018-03-24T04:20:17.076Z,-1.52
2018-03-24T04:21:17.111Z,-1.58
2018-03-24T04:22:16.366Z,-1.58
2018-03-24T04:23:16.625Z,-1.58
2018-03-24T04:24:16.893Z,-1.64
2018-03-24T04:25:17.161Z,-1.64
2018-03-24T04:26:16.420Z,-1.58
2018-03-24T04:27:16.679Z,-1.52
2018-03-24T04:28:16.949Z,-1.52
2018-03-24T04:29:16.214Z,-1.52
2018-03-24T04:30:16.484Z,-1.52
2018-03-24T04:31:16.533Z,-1.58
2018-03-24T04:32:16.785Z,-1.58
2018-03-24T04:33:17.056Z,-1.70
2018-03-24T04:34:16.316Z,-1.77
2018-03-24T04:35:16.577Z,-1.83
2018-03-24T04:36:16.849Z,-1.89
2018-03-24T04:37:17.128Z,-1.95
2018-03-24T04:38:16.380Z,-2.02
2018-03-24T04:39:16.639Z,-2.02
2018-03-24T04:40:16.906Z,-2.02
2018-03-24T04:41:16.964Z,-1.95
2018-03-24T04:42:16.230Z,-1.89
2018-03-24T04:43:16.493Z,-1.89
2018-03-24T04:44:16.759Z,-1.89
2018-03-24T04:45:17.026Z,-1.89
2018-03-24T04:46:16.449Z,-1.89
2018-03-24T04:47:16.715Z,-1.95
2018-03-24T04:48:16.977Z,-1.95
2018-03-24T04:49:16.236Z,-2.02
2018-03-24T04:50:16.504Z,-2.02
2018-03-24T04:51:16.551Z,-2.02
2018-03-24T04:52:16.807Z,-2.02
2018-03-24T04:53:17.076Z,-2.02
2018-03-24T04:54:16.394Z,-2.02
2018-03-24T04:55:16.656Z,-2.02
2018-03-24T04:56:16.916Z,-2.02
2018-03-24T04:57:17.182Z,-1.95
2018-03-24T04:58:16.443Z,-1.95
2018-03-24T04:59:16.705Z,-1.95
2018-03-24T05:00:16.973Z,-1.95
2018-03-24T05:01:17.017Z,-1.95
2018-03-24T05:02:16.283Z,-1.95
2018-03-24T05:03:16.545Z,-1.95
2018-03-24T05:04:16.813Z,-2.02
2018-03-24T05:05:17.080Z,-2.14
2018-03-24T05:06:16.344Z,-2.14
2018-03-24T05:07:16.607Z,-2.20
2018-03-24T05:08:16.881Z,-2.27
2018-03-24T05:09:17.153Z,-2.27
2018-03-24T05:10:16.421Z,-2.27
2018-03-24T05:11:16.463Z,-2.27
2018-03-24T05:12:16.730Z,-2.20
2018-03-24T05:13:16.996Z,-2.08
2018-03-24T05:14:16.261Z,-2.08
2018-03-24T05:15:16.525Z,-2.08
2018-03-24T05:16:16.796Z,-2.14
2018-03-24T05:17:17.063Z,-2.14
2018-03-24T05:18:16.379Z,-2.27
2018-03-24T05:19:16.637Z,-2.27
2018-03-24T05:20:16.905Z,-2.20
2018-03-24T05:21:16.942Z,-2.20
2018-03-24T05:22:16.203Z,-2.14
2018-03-24T05:23:16.473Z,-2.14
2018-03-24T05:24:16.729Z,-2.08
2018-03-24T05:25:16.984Z,-2.08
2018-03-24T05:26:16.277Z,-2.02
2018-03-24T05:27:16.574Z,-2.02
2018-03-24T05:28:16.836Z,-2.02
2018-03-24T05:29:17.103Z,-2.02
2018-03-24T05:30:16.370Z,-1.95
2018-03-24T05:31:16.421Z,-1.89
2018-03-24T05:32:16.681Z,-1.89
2018-03-24T05:33:16.944Z,-1.89
2018-03-24T05:34:16.209Z,-1.89
2018-03-24T05:35:16.537Z,-1.89
2018-03-24T05:36:16.793Z,-1.83
2018-03-24T05:37:17.364Z,-1.83
2018-03-24T05:38:16.624Z,-1.77
2018-03-24T05:39:16.881Z,-1.83
2018-03-24T05:40:17.140Z,-1.77
2018-03-24T05:41:17.189Z,-1.77
2018-03-24T05:42:16.462Z,-1.77
2018-03-24T05:43:16.775Z,-1.77
2018-03-24T05:44:17.038Z,-1.77
2018-03-24T05:45:16.306Z,-1.77
2018-03-24T05:46:16.569Z,-1.70
2018-03-24T05:47:16.841Z,-1.70
2018-03-24T05:48:17.102Z,-1.70
2018-03-24T05:49:16.369Z,-1.64
2018-03-24T05:50:16.648Z,-1.64
2018-03-24T05:51:16.694Z,-1.64
2018-03-24T05:52:16.963Z,-1.64
2018-03-24T05:53:16.229Z,-1.58
2018-03-24T05:54:16.504Z,-1.64
2018-03-24T05:55:16.779Z,-1.58
2018-03-24T05:56:17.049Z,-1.58
2018-03-24T05:57:16.324Z,-1.58
2018-03-24T05:58:16.591Z,-1.64
2018-03-24T05:59:16.850Z,-1.64
2018-03-24T06:00:17.127Z,-1.58
2018-03-24T06:01:17.182Z,-1.64
2018-03-24T06:02:16.446Z,-1.58
2018-03-24T06:03:16.717Z,-1.58
2018-03-24T06:04:16.966Z,-1.58
2018-03-24T06:05:16.243Z,-1.58
2018-03-24T06:06:16.506Z,-1.58
2018-03-24T06:07:16.773Z,-1.52
2018-03-24T06:08:17.035Z,-1.52
2018-03-24T06:09:16.296Z,-1.52
2018-03-24T06:10:16.563Z,-1.52
2018-03-24T06:11:16.599Z,-1.52
2018-03-24T06:12:16.854Z,-1.45
2018-03-24T06:13:17.123Z,-1.33
2018-03-24T06:14:16.382Z,-1.33
2018-03-24T06:15:16.644Z,-1.27
2018-03-24T06:16:16.906Z,-1.27
2018-03-24T06:17:17.172Z,-1.27
2018-03-24T06:18:16.437Z,-1.20
2018-03-24T06:19:16.697Z,-1.20
2018-03-24T06:20:16.966Z,-1.20
2018-03-24T06:21:16.995Z,-1.14
2018-03-24T06:22:16.257Z,-1.14
2018-03-24T06:23:16.538Z,-1.14
2018-03-24T06:24:16.796Z,-1.08
2018-03-24T06:25:17.068Z,-0.89
2018-03-24T06:26:16.338Z,-0.83
2018-03-24T06:27:16.609Z,-0.77
2018-03-24T06:28:16.867Z,-0.64
2018-03-24T06:29:17.151Z,-0.64
2018-03-24T06:30:16.424Z,-0.64
2018-03-24T06:31:16.450Z,-0.70
2018-03-24T06:32:16.726Z,-0.64
2018-03-24T06:33:16.993Z,-0.45
2018-03-24T06:34:16.270Z,-0.27
2018-03-24T06:35:16.547Z,-0.20
2018-03-24T06:36:16.829Z,-0.14
2018-03-24T06:37:17.089Z,-0.08
2018-03-24T06:38:16.352Z,-0.08
2018-03-24T06:39:16.617Z,0.05
2018-03-24T06:40:16.896Z,0.17
2018-03-24T06:41:16.941Z,0.23
2018-03-24T06:42:16.206Z,0.30
2018-03-24T06:43:16.477Z,0.30
2018-03-24T06:44:16.753Z,0.36
2018-03-24T06:45:17.013Z,0.42
2018-03-24T06:46:16.275Z,0.42
2018-03-24T06:47:16.548Z,0.42
2018-03-24T06:48:16.804Z,0.42
2018-03-24T06:49:17.065Z,0.48
2018-03-24T06:50:16.330Z,0.55
2018-03-24T06:51:16.380Z,0.61
2018-03-24T06:52:16.639Z,0.67
2018-03-24T06:53:16.904Z,0.73
2018-03-24T06:54:17.190Z,0.86
2018-03-24T06:55:16.457Z,0.98
2018-03-24T06:56:16.716Z,0.98
2018-03-24T06:57:16.980Z,1.05
2018-03-24T06:58:16.238Z,1.11
2018-03-24T06:59:16.513Z,1.11
2018-03-24T07:00:16.791Z,1.17
2018-03-24T07:01:16.837Z,1.17
2018-03-24T07:02:17.105Z,1.17
2018-03-24T07:03:16.369Z,1.17
2018-03-24T07:04:16.640Z,1.23
2018-03-24T07:05:16.902Z,1.23
2018-03-24T07:06:17.163Z,1.23
2018-03-24T07:07:16.416Z,1.23
2018-03-24T07:08:16.676Z,1.30
2018-03-24T07:09:16.946Z,1.23
2018-03-24T07:10:16.217Z,1.30
2018-03-24T07:11:16.259Z,1.36
2018-03-24T07:12:16.530Z,1.30
2018-03-24T07:13:16.790Z,1.42
2018-03-24T07:14:17.042Z,1.42
2018-03-24T07:15:16.625Z,1.48
2018-03-24T07:16:16.896Z,1.48
2018-03-24T07:17:17.428Z,1.48
2018-03-24T07:18:16.688Z,1.48
2018-03-24T07:19:16.953Z,1.48
2018-03-24T07:20:16.242Z,1.55
2018-03-24T07:21:16.320Z,1.61
2018-03-24T07:22:16.644Z,1.73
2018-03-24T07:23:16.909Z,1.73
2018-03-24T07:24:17.184Z,1.80
2018-03-24T07:25:16.447Z,1.80
2018-03-24T07:26:16.710Z,1.86
2018-03-24T07:27:16.966Z,1.86
2018-03-24T07:28:16.233Z,1.92
2018-03-24T07:29:16.500Z,1.92
2018-03-24T07:30:16.772Z,1.98
2018-03-24T07:31:16.817Z,1.98
2018-03-24T07:32:17.086Z,2.05
2018-03-24T07:33:16.353Z,2.11
2018-03-24T07:34:16.617Z,2.11
2018-03-24T07:35:16.878Z,2.17
2018-03-24T07:36:17.139Z,2.30
2018-03-24T07:37:16.398Z,2.30
2018-03-24T07:38:16.665Z,2.23
2018-03-24T07:39:16.925Z,2.23
2018-03-24T07:40:17.469Z,2.30
2018-03-24T07:41:16.241Z,2.36
2018-03-24T07:42:16.514Z,2.42
2018-03-24T07:43:16.785Z,2.42
2018-03-24T07:44:17.059Z,2.48
2018-03-24T07:45:16.335Z,2.48
2018-03-24T07:46:16.907Z,2.55
2018-03-24T07:47:17.172Z,2.55
2018-03-24T07:48:16.430Z,2.48
2018-03-24T07:49:16.698Z,2.61
2018-03-24T07:50:16.970Z,2.55
2018-03-24T07:51:17.015Z,2.67
2018-03-24T07:52:16.373Z,2.80
2018-03-24T07:53:16.648Z,2.86
2018-03-24T07:54:16.923Z,2.86
2018-03-24T07:55:17.187Z,2.86
2018-03-24T07:56:16.450Z,2.92
2018-03-24T07:57:16.710Z,2.98
2018-03-24T07:58:16.979Z,3.05
2018-03-24T07:59:16.249Z,3.11
2018-03-24T08:00:16.507Z,3.11
2018-03-24T08:01:16.548Z,3.11
2018-03-24T08:02:16.818Z,3.05
2018-03-24T08:03:17.081Z,2.98
2018-03-24T08:04:16.375Z,2.98
2018-03-24T08:05:16.826Z,2.98
2018-03-24T08:06:17.374Z,2.92
2018-03-24T08:07:16.636Z,2.98
2018-03-24T08:08:16.901Z,2.92
2018-03-24T08:09:17.173Z,3.11
2018-03-24T08:10:16.441Z,3.23
2018-03-24T08:11:16.487Z,3.23
2018-03-24T08:12:16.773Z,3.23
2018-03-24T08:13:17.039Z,3.36
2018-03-24T08:14:16.307Z,3.61
2018-03-24T08:15:16.572Z,3.73
2018-03-24T08:16:16.836Z,3.80
2018-03-24T08:17:17.106Z,3.98
2018-03-24T08:18:16.365Z,3.86
2018-03-24T08:19:16.625Z,4.05
2018-03-24T08:20:16.900Z,4.11
2018-03-24T08:21:16.945Z,4.05
2018-03-24T08:22:16.210Z,4.11
2018-03-24T08:23:16.474Z,4.11
2018-03-24T08:24:16.735Z,4.11
2018-03-24T08:25:16.997Z,4.17
2018-03-24T08:26:16.262Z,4.42
2018-03-24T08:27:16.517Z,4.55
2018-03-24T08:28:16.448Z,4.55
2018-03-24T08:29:16.728Z,4.55
2018-03-24T08:30:17.015Z,4.61
2018-03-24T08:31:17.058Z,4.61
2018-03-24T08:32:16.321Z,4.67
2018-03-24T08:33:16.582Z,4.67
2018-03-24T08:34:16.854Z,4.73
2018-03-24T08:35:17.122Z,4.73
2018-03-24T08:36:16.380Z,4.73
2018-03-24T08:37:16.639Z,4.55
2018-03-24T08:38:16.907Z,4.61
2018-03-24T08:39:17.177Z,4.67
2018-03-24T08:40:16.449Z,4.73
2018-03-24T08:41:16.486Z,4.80
2018-03-24T08:42:16.763Z,4.73
2018-03-24T08:43:17.047Z,4.73
2018-03-24T08:44:16.318Z,4.67
2018-03-24T08:45:16.592Z,4.61
2018-03-24T08:46:16.852Z,4.67
2018-03-24T08:47:17.440Z,4.61
2018-03-24T08:48:16.702Z,4.73
2018-03-24T08:49:16.965Z,4.80
2018-03-24T08:50:16.230Z,4.92
2018-03-24T08:51:16.281Z,4.98
2018-03-24T08:52:16.547Z,5.11
2018-03-24T08:53:16.812Z,5.05
2018-03-24T08:54:17.088Z,5.17
2018-03-24T08:55:16.357Z,5.17
2018-03-24T08:56:16.614Z,5.23
2018-03-24T08:57:16.881Z,5.23
2018-03-24T08:58:17.159Z,5.36
2018-03-24T08:59:16.417Z,5.42
2018-03-24T09:00:16.697Z,5.48
2018-03-24T09:01:16.741Z,5.48
2018-03-24T09:02:17.005Z,5.42
2018-03-24T09:03:16.297Z,5.36
2018-03-24T09:04:16.555Z,5.42
2018-03-24T09:05:16.811Z,5.42
2018-03-24T09:06:16.218Z,5.48
2018-03-24T09:07:16.486Z,5.48
2018-03-24T09:08:16.754Z,5.55
2018-03-24T09:09:17.018Z,5.61
2018-03-24T09:10:16.286Z,5.67
2018-03-24T09:11:16.333Z,5.73
2018-03-24T09:12:16.594Z,5.73
2018-03-24T09:13:16.850Z,5.73
2018-03-24T09:14:17.120Z,5.61
2018-03-24T09:15:16.400Z,5.61
2018-03-24T09:16:16.666Z,5.67
2018-03-24T09:17:16.918Z,5.80
2018-03-24T09:18:17.195Z,5.80
2018-03-24T09:19:16.462Z,5.86
2018-03-24T09:20:16.738Z,5.80
2018-03-24T09:21:16.770Z,5.67
2018-03-24T09:22:17.049Z,5.73
2018-03-24T09:23:16.374Z,5.86
2018-03-24T09:24:16.634Z,5.86
2018-03-24T09:25:16.904Z,5.92
2018-03-24T09:26:17.167Z,5.98
2018-03-24T09:27:16.422Z,5.98
2018-03-24T09:28:16.681Z,6.17
2018-03-24T09:29:16.944Z,6.23
2018-03-24T09:30:16.214Z,6.23
2018-03-24T09:31:16.247Z,6.11
2018-03-24T09:32:16.515Z,6.17
2018-03-24T09:33:16.776Z,6.23
2018-03-24T09:34:17.048Z,6.42
2018-03-24T09:35:16.309Z,6.55
2018-03-24T09:36:16.574Z,6.55
2018-03-24T09:37:16.849Z,6.61
2018-03-24T09:38:17.125Z,6.67
2018-03-24T09:39:16.390Z,6.73
2018-03-24T09:40:16.667Z,6.80
2018-03-24T09:41:16.807Z,6.92
2018-03-24T09:42:17.069Z,6.92
2018-03-24T09:43:16.319Z,6.92
2018-03-24T09:44:16.582Z,6.98
2018-03-24T09:45:16.851Z,6.98
2018-03-24T09:46:17.163Z,6.92
2018-03-24T09:47:16.431Z,6.92
2018-03-24T09:48:16.690Z,6.98
2018-03-24T09:49:16.999Z,6.86
2018-03-24T09:50:16.263Z,6.73
2018-03-24T09:51:16.314Z,6.67
2018-03-24T09:52:16.585Z,6.67
2018-03-24T09:53:16.848Z,6.61
2018-03-24T09:54:17.152Z,6.67
2018-03-24T09:55:16.426Z,6.92
2018-03-24T09:56:16.692Z,6.98
2018-03-24T09:57:16.956Z,7.05
2018-03-24T09:58:16.223Z,7.11
2018-03-24T09:59:16.551Z,7.23
2018-03-24T10:00:16.883Z,7.42
2018-03-24T10:01:16.942Z,7.48
2018-03-24T10:02:16.209Z,7.30
2018-03-24T10:03:16.477Z,7.36
2018-03-24T10:04:16.738Z,7.11
2018-03-24T10:05:17.007Z,7.05
2018-03-24T10:06:16.309Z,6.98
2018-03-24T10:07:16.587Z,7.05
2018-03-24T10:08:16.845Z,7.42
2018-03-24T10:09:17.117Z,7.67
2018-03-24T10:10:16.382Z,7.98
2018-03-24T10:11:16.443Z,8.17
2018-03-24T10:12:16.707Z,8.11
2018-03-24T10:13:16.968Z,8.05
2018-03-24T10:14:16.237Z,8.17
2018-03-24T10:15:16.497Z,7.92
2018-03-24T10:16:16.763Z,7.73
2018-03-24T10:17:17.032Z,7.86
2018-03-24T10:18:16.290Z,8.05
2018-03-24T10:19:16.545Z,7.98
2018-03-24T10:20:16.815Z,7.92
2018-03-24T10:21:16.873Z,7.80
2018-03-24T10:22:17.134Z,7.80
2018-03-24T10:23:16.412Z,7.92
2018-03-24T10:24:16.677Z,7.92
2018-03-24T10:25:16.952Z,7.73
2018-03-24T10:26:16.222Z,7.73
2018-03-24T10:27:16.486Z,7.73
2018-03-24T10:28:16.752Z,7.86
2018-03-24T10:29:17.016Z,7.92
2018-03-24T10:30:16.293Z,8.05
2018-03-24T10:31:16.332Z,8.05
2018-03-24T10:32:16.601Z,7.98
2018-03-24T10:33:16.869Z,7.98
2018-03-24T10:34:17.133Z,7.92
2018-03-24T10:35:16.403Z,7.73
2018-03-24T10:36:16.670Z,7.67
2018-03-24T10:37:16.928Z,7.67
2018-03-24T10:38:17.198Z,7.73
2018-03-24T10:39:16.458Z,7.67
2018-03-24T10:40:16.730Z,7.55
2018-03-24T10:41:16.787Z,7.48
2018-03-24T10:42:17.051Z,7.48
2018-03-24T10:43:16.315Z,7.55
2018-03-24T10:44:16.574Z,7.61
2018-03-24T10:45:16.848Z,7.80
2018-03-24T10:46:17.117Z,7.92
2018-03-24T10:47:16.376Z,8.11
2018-03-24T10:48:16.641Z,8.30
2018-03-24T10:49:16.924Z,8.42
2018-03-24T10:50:17.189Z,8.55
2018-03-24T10:51:16.252Z,8.67
2018-03-24T10:52:16.510Z,8.80
2018-03-24T10:53:16.770Z,8.61
2018-03-24T10:54:17.028Z,8.55
2018-03-24T10:55:16.306Z,8.67
2018-03-24T10:56:16.574Z,8.73
2018-03-24T10:57:16.842Z,8.67
2018-03-24T10:58:17.104Z,8.55
2018-03-24T10:59:16.366Z,8.36
2018-03-24T11:00:16.648Z,8.30
2018-03-24T11:01:16.690Z,8.36
2018-03-24T11:02:16.945Z,8.48
2018-03-24T11:03:16.209Z,8.55
2018-03-24T11:04:16.470Z,8.48
2018-03-24T11:05:16.749Z,8.23
2018-03-24T11:06:17.066Z,8.19
2018-03-24T11:07:16.320Z,8.17
2018-03-24T11:08:16.590Z,8.05
2018-03-24T11:09:16.858Z,7.98
2018-03-24T11:10:17.123Z,7.98
2018-03-24T11:11:17.200Z,7.92
2018-03-24T11:12:16.560Z,7.86
2018-03-24T11:13:16.822Z,7.80
2018-03-24T11:14:17.101Z,7.61
2018-03-24T11:15:16.365Z,7.61
2018-03-24T11:16:16.630Z,7.73
2018-03-24T11:17:16.895Z,8.17
2018-03-24T11:18:17.162Z,8.36
2018-03-24T11:19:16.425Z,8.61
2018-03-24T11:20:16.699Z,8.61
2018-03-24T11:21:16.751Z,8.73
2018-03-24T11:22:17.023Z,8.92
2018-03-24T11:23:16.288Z,8.98
2018-03-24T11:24:16.554Z,8.75
2018-03-24T11:25:16.815Z,8.47
2018-03-24T11:26:17.134Z,8.63
2018-03-24T11:27:16.395Z,8.63
2018-03-24T11:28:16.667Z,8.92
2018-03-24T11:29:16.942Z,8.73
2018-03-24T11:30:16.207Z,8.67
2018-03-24T11:31:16.297Z,8.67
2018-03-24T11:32:16.561Z,8.61
2018-03-24T11:33:16.816Z,8.36
2018-03-24T11:34:17.088Z,8.61
2018-03-24T11:35:16.357Z,8.67
2018-03-24T11:36:16.616Z,8.67
2018-03-24T11:37:16.879Z,8.80
2018-03-24T11:38:17.156Z,8.11
2018-03-24T11:39:16.423Z,8.05
2018-03-24T11:40:16.696Z,8.30
2018-03-24T11:41:17.055Z,8.48
2018-03-24T11:42:16.322Z,8.73
2018-03-24T11:43:16.581Z,8.80
2018-03-24T11:44:16.853Z,8.80
2018-03-24T11:45:17.115Z,8.88
2018-03-24T11:46:16.371Z,8.73
2018-03-24T11:47:16.651Z,9.05
2018-03-24T11:48:16.919Z,9.05
2018-03-24T11:49:17.178Z,9.05
2018-03-24T11:50:16.484Z,9.11
2018-03-24T11:51:16.500Z,9.05
2018-03-24T11:52:16.764Z,9.05
2018-03-24T11:53:17.028Z,9.23
2018-03-24T11:54:16.290Z,9.17
2018-03-24T11:55:16.561Z,9.22
2018-03-24T11:56:16.875Z,9.11
2018-03-24T11:57:16.215Z,9.17
2018-03-24T11:58:16.478Z,9.17
2018-03-24T11:59:16.735Z,9.23
2018-03-24T12:00:17.005Z,9.17
2018-03-24T12:01:17.064Z,9.23
2018-03-24T12:02:16.334Z,9.36
2018-03-24T12:03:16.599Z,9.42
2018-03-24T12:04:16.858Z,9.36
2018-03-24T12:05:17.121Z,9.30
2018-03-24T12:06:16.390Z,9.20
2018-03-24T12:07:16.658Z,8.90
2018-03-24T12:08:16.925Z,8.94
2018-03-24T12:09:16.330Z,9.18
2018-03-24T12:10:16.598Z,9.23
2018-03-24T12:11:16.630Z,9.02
2018-03-24T12:12:16.896Z,8.88
2018-03-24T12:13:17.178Z,8.20
2018-03-24T12:14:16.446Z,8.26
2018-03-24T12:15:16.709Z,8.30
2018-03-24T12:16:16.970Z,8.27
2018-03-24T12:17:16.225Z,8.36
2018-03-24T12:18:16.527Z,8.30
2018-03-24T12:19:16.793Z,8.11
2018-03-24T12:20:17.068Z,7.92
2018-03-24T12:21:17.110Z,7.80
2018-03-24T12:22:16.421Z,7.73
2018-03-24T12:23:16.737Z,7.67
2018-03-24T12:24:17.000Z,7.67
2018-03-24T12:25:16.272Z,7.73
2018-03-24T12:26:16.538Z,7.80
2018-03-24T12:27:16.796Z,7.80
2018-03-24T12:28:17.051Z,7.80
2018-03-24T12:29:16.320Z,7.92
2018-03-24T12:30:16.594Z,7.98
2018-03-24T12:31:16.650Z,8.05
2018-03-24T12:32:16.909Z,7.98
2018-03-24T12:33:17.175Z,8.11
2018-03-24T12:34:16.441Z,8.11
2018-03-24T12:35:16.699Z,8.17
2018-03-24T12:36:16.965Z,8.23
2018-03-24T12:37:16.226Z,8.36
2018-03-24T12:38:16.484Z,8.42
2018-03-24T12:39:16.747Z,8.55
2018-03-24T12:40:17.018Z,8.55
2018-03-24T12:41:17.075Z,8.73
2018-03-24T12:42:16.330Z,8.80
2018-03-24T12:43:16.580Z,8.87
2018-03-24T12:44:16.859Z,8.94
2018-03-24T12:45:17.118Z,8.91
2018-03-24T12:46:16.390Z,8.72
2018-03-24T12:47:16.726Z,8.72
2018-03-24T12:48:16.991Z,8.73
2018-03-24T12:49:16.261Z,8.75
2018-03-24T12:50:16.542Z,8.84
2018-03-24T12:51:16.578Z,8.76
2018-03-24T12:52:16.842Z,8.95
2018-03-24T12:53:17.106Z,9.08
2018-03-24T12:54:16.367Z,9.20
2018-03-24T12:55:16.632Z,8.99
2018-03-24T12:56:16.892Z,9.08
2018-03-24T12:57:17.161Z,9.13
2018-03-24T12:58:16.426Z,9.37
2018-03-24T12:59:16.683Z,9.48
2018-03-24T13:00:16.955Z,9.32
2018-03-24T13:01:17.013Z,9.38
2018-03-24T13:02:16.273Z,9.31
2018-03-24T13:03:16.536Z,9.20
2018-03-24T13:04:16.798Z,9.27
2018-03-24T13:05:17.057Z,9.27
2018-03-24T13:06:16.321Z,9.18
2018-03-24T13:07:16.582Z,9.24
2018-03-24T13:08:16.847Z,9.23
2018-03-24T13:09:17.114Z,9.31
2018-03-24T13:10:16.432Z,9.46